createdAt,value
2023-01-25T00:00:50.106Z,1015.42
2023-01-25T00:01:50.164Z,1015.43
2023-01-25T00:02:50.184Z,1015.40
2023-01-25T00:03:50.100Z,1015.38
2023-01-25T00:04:50.066Z,1015.40
2023-01-25T00:05:50.053Z,1015.40
2023-01-25T00:06:50.048Z,1015.39
2023-01-25T00:07:50.033Z,1015.35
2023-01-25T00:08:50.039Z,1015.36
2023-01-25T00:09:50.043Z,1015.31
2023-01-25T00:10:49.995Z,1015.34
2023-01-25T00:11:49.996Z,1015.33
2023-01-25T00:12:49.974Z,1015.34
2023-01-25T00:13:49.969Z,1015.35
2023-01-25T00:14:49.969Z,1015.33
2023-01-25T00:15:49.967Z,1015.34
2023-01-25T00:16:50.003Z,1015.32
2023-01-25T00:17:49.913Z,1015.29
2023-01-25T00:18:49.928Z,1015.25
2023-01-25T00:19:49.926Z,1015.21
2023-01-25T00:20:49.917Z,1015.24
2023-01-25T00:21:49.878Z,1015.22
2023-01-25T00:22:49.871Z,1015.22
2023-01-25T00:23:49.881Z,1015.24
2023-01-25T00:24:49.852Z,1015.22
2023-01-25T00:25:49.832Z,1015.19
2023-01-25T00:26:49.840Z,1015.17
2023-01-25T00:27:49.818Z,1015.17
2023-01-25T00:28:49.803Z,1015.17
2023-01-25T00:29:49.795Z,1015.16
2023-01-25T00:30:49.782Z,1015.16
2023-01-25T00:31:49.893Z,1015.15
2023-01-25T00:32:49.857Z,1015.16
2023-01-25T00:33:49.745Z,1015.11
2023-01-25T00:34:49.734Z,1015.11
2023-01-25T00:35:49.727Z,1015.10
2023-01-25T00:36:49.727Z,1015.13
2023-01-25T00:37:49.756Z,1015.10
2023-01-25T00:38:49.688Z,1015.11
2023-01-25T00:39:49.705Z,1015.10
2023-01-25T00:40:49.673Z,1015.04
2023-01-25T00:41:49.671Z,1015.06
2023-01-25T00:42:49.674Z,1015.02
2023-01-25T00:43:49.631Z,1014.98
2023-01-25T00:44:49.664Z,1015.01
2023-01-25T00:45:49.749Z,1014.96
2023-01-25T00:46:49.621Z,1014.93
2023-01-25T00:47:49.616Z,1014.96
2023-01-25T00:48:49.588Z,1014.92
2023-01-25T00:49:49.584Z,1014.93
2023-01-25T00:50:49.553Z,1014.94
2023-01-25T00:51:49.557Z,1014.96
2023-01-25T00:52:49.534Z,1014.95
2023-01-25T00:53:49.541Z,1014.96
2023-01-25T00:54:49.545Z,1014.90
2023-01-25T00:55:49.497Z,1014.92
2023-01-25T00:56:49.503Z,1014.91
2023-01-25T00:57:49.478Z,1014.96
2023-01-25T00:58:49.475Z,1014.91
2023-01-25T00:59:49.457Z,1014.94
2023-01-25T01:00:49.497Z,1014.87
2023-01-25T01:01:49.437Z,1014.82
2023-01-25T01:02:49.432Z,1014.83
2023-01-25T01:03:49.432Z,1014.81
2023-01-25T01:04:49.491Z,1014.82
2023-01-25T01:05:49.388Z,1014.83
2023-01-25T01:06:49.381Z,1014.81
2023-01-25T01:07:49.371Z,1014.81
2023-01-25T01:08:49.380Z,1014.83
2023-01-25T01:09:49.395Z,1014.81
2023-01-25T01:10:49.349Z,1014.79
2023-01-25T01:11:49.335Z,1014.83
2023-01-25T01:12:49.326Z,1014.85
2023-01-25T01:13:49.299Z,1014.85
2023-01-25T01:14:49.302Z,1014.82
2023-01-25T01:15:49.298Z,1014.80
2023-01-25T01:16:49.301Z,1014.85
2023-01-25T01:17:49.268Z,1014.80
2023-01-25T01:18:49.258Z,1014.76
2023-01-25T01:19:49.271Z,1014.79
2023-01-25T01:20:49.226Z,1014.78
2023-01-25T01:21:49.227Z,1014.78
2023-01-25T01:22:49.198Z,1014.75
2023-01-25T01:23:49.257Z,1014.75
2023-01-25T01:24:49.194Z,1014.73
2023-01-25T01:25:49.180Z,1014.80
2023-01-25T01:26:49.163Z,1014.72
2023-01-25T01:27:49.162Z,1014.75
2023-01-25T01:28:49.142Z,1014.75
2023-01-25T01:29:49.127Z,1014.72
2023-01-25T01:30:49.140Z,1014.80
2023-01-25T01:31:49.244Z,1014.80
2023-01-25T01:32:49.210Z,1014.79
2023-01-25T01:33:49.085Z,1014.77
2023-01-25T01:34:49.076Z,1014.78
2023-01-25T01:35:49.055Z,1014.77
2023-01-25T01:36:49.071Z,1014.79
2023-01-25T01:37:49.030Z,1014.83
2023-01-25T01:38:49.033Z,1014.86
2023-01-25T01:39:49.040Z,1014.83
2023-01-25T01:40:49.025Z,1014.85
2023-01-25T01:41:49.009Z,1014.86
2023-01-25T01:42:48.992Z,1014.86
2023-01-25T01:43:48.984Z,1014.83
2023-01-25T01:44:48.975Z,1014.88
2023-01-25T01:45:49.008Z,1014.84
2023-01-25T01:46:48.936Z,1014.83
2023-01-25T01:47:48.933Z,1014.82
2023-01-25T01:48:48.925Z,1014.79
2023-01-25T01:49:48.906Z,1014.87
2023-01-25T01:50:48.895Z,1014.79
2023-01-25T01:51:48.889Z,1014.80
2023-01-25T01:52:48.879Z,1014.77
2023-01-25T01:53:48.871Z,1014.79
2023-01-25T01:54:48.862Z,1014.78
2023-01-25T01:55:48.843Z,1014.79
2023-01-25T01:56:48.841Z,1014.75
2023-01-25T01:57:48.820Z,1014.74
2023-01-25T01:58:48.839Z,1014.70
2023-01-25T01:59:48.805Z,1014.70
2023-01-25T02:00:48.792Z,1014.68
2023-01-25T02:01:48.791Z,1014.71
2023-01-25T02:02:48.821Z,1014.67
2023-01-25T02:03:48.764Z,1014.73
2023-01-25T02:04:48.745Z,1014.68
2023-01-25T02:05:48.742Z,1014.67
2023-01-25T02:06:48.743Z,1014.67
2023-01-25T02:07:48.701Z,1014.72
2023-01-25T02:08:48.699Z,1014.70
2023-01-25T02:09:48.695Z,1014.70
2023-01-25T02:10:48.679Z,1014.67
2023-01-25T02:11:48.689Z,1014.71
2023-01-25T02:12:48.663Z,1014.76
2023-01-25T02:13:48.653Z,1014.70
2023-01-25T02:14:48.626Z,1014.72
2023-01-25T02:15:48.665Z,1014.66
2023-01-25T02:16:48.599Z,1014.71
2023-01-25T02:17:48.619Z,1014.71
2023-01-25T02:18:48.596Z,1014.72
2023-01-25T02:19:48.575Z,1014.71
2023-01-25T02:20:48.566Z,1014.69
2023-01-25T02:21:48.550Z,1014.70
2023-01-25T02:22:48.539Z,1014.69
2023-01-25T02:23:48.674Z,1014.65
2023-01-25T02:24:48.517Z,1014.68
2023-01-25T02:25:48.508Z,1014.70
2023-01-25T02:26:48.500Z,1014.73
2023-01-25T02:27:48.483Z,1014.66
2023-01-25T02:28:48.475Z,1014.68
2023-01-25T02:29:48.473Z,1014.62
2023-01-25T02:30:48.506Z,1014.65
2023-01-25T02:31:48.546Z,1014.61
2023-01-25T02:32:48.436Z,1014.57
2023-01-25T02:33:48.424Z,1014.58
2023-01-25T02:34:48.402Z,1014.56
2023-01-25T02:35:48.427Z,1014.55
2023-01-25T02:36:48.383Z,1014.56
2023-01-25T02:37:48.385Z,1014.55
2023-01-25T02:38:48.379Z,1014.53
2023-01-25T02:39:48.362Z,1014.55
2023-01-25T02:40:48.364Z,1014.54
2023-01-25T02:41:48.349Z,1014.51
2023-01-25T02:42:48.315Z,1014.51
2023-01-25T02:43:48.317Z,1014.49
2023-01-25T02:44:48.296Z,1014.51
2023-01-25T02:45:48.323Z,1014.50
2023-01-25T02:46:48.281Z,1014.49
2023-01-25T02:47:48.293Z,1014.53
2023-01-25T02:48:48.270Z,1014.50
2023-01-25T02:49:48.253Z,1014.54
2023-01-25T02:50:48.247Z,1014.55
2023-01-25T02:51:48.228Z,1014.55
2023-01-25T02:52:48.220Z,1014.56
2023-01-25T02:53:48.202Z,1014.53
2023-01-25T02:54:48.201Z,1014.55
2023-01-25T02:55:48.188Z,1014.51
2023-01-25T02:56:48.183Z,1014.51
2023-01-25T02:57:48.168Z,1014.46
2023-01-25T02:58:48.143Z,1014.48
2023-01-25T02:59:48.130Z,1014.48
2023-01-25T03:00:48.142Z,1014.50
2023-01-25T03:01:48.232Z,1014.51
2023-01-25T03:02:48.196Z,1014.50
2023-01-25T03:03:48.115Z,1014.51
2023-01-25T03:04:48.075Z,1014.55
2023-01-25T03:05:48.069Z,1014.54
2023-01-25T03:06:48.083Z,1014.55
2023-01-25T03:07:48.054Z,1014.53
2023-01-25T03:08:48.054Z,1014.49
2023-01-25T03:09:49.671Z,1014.49
2023-01-25T03:10:48.024Z,1014.52
2023-01-25T03:11:47.995Z,1014.48
2023-01-25T03:12:47.999Z,1014.50
2023-01-25T03:13:47.979Z,1014.48
2023-01-25T03:14:47.980Z,1014.47
2023-01-25T03:15:48.083Z,1014.48
2023-01-25T03:16:47.955Z,1014.45
2023-01-25T03:17:47.965Z,1014.45
2023-01-25T03:18:47.965Z,1014.47
2023-01-25T03:19:47.918Z,1014.45
2023-01-25T03:20:47.899Z,1014.46
2023-01-25T03:21:47.896Z,1014.44
2023-01-25T03:22:47.889Z,1014.48
2023-01-25T03:23:47.961Z,1014.47
2023-01-25T03:24:47.892Z,1014.46
2023-01-25T03:25:47.847Z,1014.43
2023-01-25T03:26:47.837Z,1014.42
2023-01-25T03:27:47.869Z,1014.43
2023-01-25T03:28:47.815Z,1014.44
2023-01-25T03:29:47.812Z,1014.42
2023-01-25T03:30:47.807Z,1014.41
2023-01-25T03:31:48.007Z,1014.40
2023-01-25T03:32:47.787Z,1014.40
2023-01-25T03:33:47.770Z,1014.41
2023-01-25T03:34:47.751Z,1014.39
2023-01-25T03:35:47.756Z,1014.40
2023-01-25T03:36:47.732Z,1014.37
2023-01-25T03:37:47.732Z,1014.37
2023-01-25T03:38:47.714Z,1014.35
2023-01-25T03:39:47.703Z,1014.36
2023-01-25T03:40:47.693Z,1014.35
2023-01-25T03:41:47.693Z,1014.39
2023-01-25T03:42:47.660Z,1014.34
2023-01-25T03:43:47.690Z,1014.30
2023-01-25T03:44:47.664Z,1014.31
2023-01-25T03:45:47.636Z,1014.31
2023-01-25T03:46:47.806Z,1014.29
2023-01-25T03:47:47.619Z,1014.28
2023-01-25T03:48:47.606Z,1014.30
2023-01-25T03:49:47.608Z,1014.30
2023-01-25T03:50:47.580Z,1014.30
2023-01-25T03:51:47.609Z,1014.31
2023-01-25T03:52:47.556Z,1014.32
2023-01-25T03:53:47.550Z,1014.28
2023-01-25T03:54:47.546Z,1014.22
2023-01-25T03:55:48.302Z,1014.22
2023-01-25T03:56:47.541Z,1014.23
2023-01-25T03:57:47.505Z,1014.22
2023-01-25T03:58:47.494Z,1014.19
2023-01-25T03:59:47.471Z,1014.16
2023-01-25T04:00:47.525Z,1014.15
2023-01-25T04:01:47.459Z,1014.14
2023-01-25T04:02:47.470Z,1014.16
2023-01-25T04:03:47.439Z,1014.10
2023-01-25T04:04:47.435Z,1014.07
2023-01-25T04:05:47.433Z,1014.06
2023-01-25T04:06:47.408Z,1014.06
2023-01-25T04:07:47.395Z,1014.04
2023-01-25T04:08:47.404Z,1014.00
2023-01-25T04:09:47.391Z,1013.92
2023-01-25T04:10:47.393Z,1013.94
2023-01-25T04:11:47.345Z,1013.94
2023-01-25T04:12:47.359Z,1013.93
2023-01-25T04:13:47.348Z,1013.91
2023-01-25T04:14:47.339Z,1013.88
2023-01-25T04:15:47.306Z,1013.90
2023-01-25T04:16:47.348Z,1013.88
2023-01-25T04:17:47.285Z,1013.87
2023-01-25T04:18:47.270Z,1013.86
2023-01-25T04:19:47.266Z,1013.86
2023-01-25T04:20:47.248Z,1013.88
2023-01-25T04:21:47.264Z,1013.85
2023-01-25T04:22:47.226Z,1013.87
2023-01-25T04:23:47.254Z,1013.84
2023-01-25T04:24:47.215Z,1013.82
2023-01-25T04:25:47.189Z,1013.81
2023-01-25T04:26:47.203Z,1013.80
2023-01-25T04:27:47.187Z,1013.80
2023-01-25T04:28:47.170Z,1013.83
2023-01-25T04:29:47.149Z,1013.75
2023-01-25T04:30:47.153Z,1013.77
2023-01-25T04:31:47.280Z,1013.80
2023-01-25T04:32:47.282Z,1013.80
2023-01-25T04:33:47.121Z,1013.73
2023-01-25T04:34:47.102Z,1013.75
2023-01-25T04:35:47.105Z,1013.76
2023-01-25T04:36:47.086Z,1013.73
2023-01-25T04:37:47.082Z,1013.71
2023-01-25T04:38:47.061Z,1013.67
2023-01-25T04:39:47.069Z,1013.68
2023-01-25T04:40:47.035Z,1013.65
2023-01-25T04:41:47.021Z,1013.64
2023-01-25T04:42:47.018Z,1013.64
2023-01-25T04:43:47.015Z,1013.64
2023-01-25T04:44:46.995Z,1013.69
2023-01-25T04:45:47.045Z,1013.67
2023-01-25T04:46:46.971Z,1013.66
2023-01-25T04:47:46.967Z,1013.68
2023-01-25T04:48:46.950Z,1013.68
2023-01-25T04:49:46.935Z,1013.64
2023-01-25T04:50:46.932Z,1013.68
2023-01-25T04:51:46.929Z,1013.64
2023-01-25T04:52:46.908Z,1013.66
2023-01-25T04:53:46.891Z,1013.66
2023-01-25T04:54:46.881Z,1013.64
2023-01-25T04:55:46.866Z,1013.65
2023-01-25T04:56:46.857Z,1013.66
2023-01-25T04:57:46.865Z,1013.58
2023-01-25T04:58:46.837Z,1013.59
2023-01-25T04:59:46.823Z,1013.54
2023-01-25T05:00:46.828Z,1013.60
2023-01-25T05:01:46.818Z,1013.58
2023-01-25T05:02:46.869Z,1013.55
2023-01-25T05:03:46.790Z,1013.56
2023-01-25T05:04:46.769Z,1013.54
2023-01-25T05:05:46.765Z,1013.52
2023-01-25T05:06:46.755Z,1013.54
2023-01-25T05:07:46.761Z,1013.46
2023-01-25T05:08:46.721Z,1013.48
2023-01-25T05:09:46.715Z,1013.49
2023-01-25T05:10:46.704Z,1013.53
2023-01-25T05:11:46.692Z,1013.50
2023-01-25T05:12:46.686Z,1013.47
2023-01-25T05:13:46.683Z,1013.48
2023-01-25T05:14:46.656Z,1013.51
2023-01-25T05:15:46.654Z,1013.46
2023-01-25T05:16:46.702Z,1013.53
2023-01-25T05:17:46.644Z,1013.48
2023-01-25T05:18:48.746Z,1013.48
2023-01-25T05:19:46.601Z,1013.45
2023-01-25T05:20:46.589Z,1013.52
2023-01-25T05:21:46.602Z,1013.48
2023-01-25T05:22:46.569Z,1013.42
2023-01-25T05:23:46.600Z,1013.45
2023-01-25T05:24:46.562Z,1013.48
2023-01-25T05:25:46.558Z,1013.41
2023-01-25T05:26:46.523Z,1013.45
2023-01-25T05:27:46.516Z,1013.42
2023-01-25T05:28:46.514Z,1013.45
2023-01-25T05:29:46.493Z,1013.41
2023-01-25T05:30:46.570Z,1013.40
2023-01-25T05:31:46.547Z,1013.45
2023-01-25T05:32:46.476Z,1013.49
2023-01-25T05:33:46.472Z,1013.45
2023-01-25T05:34:46.472Z,1013.45
2023-01-25T05:35:46.445Z,1013.46
2023-01-25T05:36:46.417Z,1013.40
2023-01-25T05:37:46.438Z,1013.41
2023-01-25T05:38:46.400Z,1013.45
2023-01-25T05:39:46.400Z,1013.43
2023-01-25T05:40:46.380Z,1013.39
2023-01-25T05:41:46.368Z,1013.39
2023-01-25T05:42:46.366Z,1013.37
2023-01-25T05:43:46.376Z,1013.39
2023-01-25T05:44:47.907Z,1013.38
2023-01-25T05:45:46.416Z,1013.39
2023-01-25T05:46:46.313Z,1013.41
2023-01-25T05:47:46.317Z,1013.40
2023-01-25T05:48:46.288Z,1013.39
2023-01-25T05:49:46.317Z,1013.38
2023-01-25T05:50:46.261Z,1013.42
2023-01-25T05:51:46.253Z,1013.40
2023-01-25T05:52:46.245Z,1013.40
2023-01-25T05:53:46.229Z,1013.43
2023-01-25T05:54:46.211Z,1013.44
2023-01-25T05:55:46.229Z,1013.41
2023-01-25T05:56:46.220Z,1013.43
2023-01-25T05:57:46.190Z,1013.46
2023-01-25T05:58:46.191Z,1013.40
2023-01-25T05:59:46.177Z,1013.41
2023-01-25T06:00:46.164Z,1013.36
2023-01-25T06:01:46.186Z,1013.37
2023-01-25T06:02:46.313Z,1013.43
2023-01-25T06:03:46.166Z,1013.36
2023-01-25T06:04:46.143Z,1013.39
2023-01-25T06:05:46.104Z,1013.39
2023-01-25T06:06:46.109Z,1013.39
2023-01-25T06:07:46.077Z,1013.37
2023-01-25T06:08:46.080Z,1013.38
2023-01-25T06:09:46.061Z,1013.34
2023-01-25T06:10:46.052Z,1013.34
2023-01-25T06:11:46.059Z,1013.32
2023-01-25T06:12:46.025Z,1013.33
2023-01-25T06:13:46.010Z,1013.34
2023-01-25T06:14:46.010Z,1013.30
2023-01-25T06:15:46.049Z,1013.33
2023-01-25T06:16:45.990Z,1013.28
2023-01-25T06:17:45.978Z,1013.25
2023-01-25T06:18:45.974Z,1013.27
2023-01-25T06:19:45.953Z,1013.27
2023-01-25T06:20:45.942Z,1013.24
2023-01-25T06:21:45.920Z,1013.20
2023-01-25T06:22:45.917Z,1013.26
2023-01-25T06:23:45.915Z,1013.24
2023-01-25T06:24:45.890Z,1013.24
2023-01-25T06:25:45.900Z,1013.27
2023-01-25T06:26:45.906Z,1013.24
2023-01-25T06:27:45.861Z,1013.28
2023-01-25T06:28:45.874Z,1013.27
2023-01-25T06:29:45.851Z,1013.27
2023-01-25T06:30:45.875Z,1013.26
2023-01-25T06:31:46.011Z,1013.27
2023-01-25T06:32:45.825Z,1013.27
2023-01-25T06:33:45.814Z,1013.28
2023-01-25T06:34:45.830Z,1013.25
2023-01-25T06:35:45.827Z,1013.25
2023-01-25T06:36:45.824Z,1013.27
2023-01-25T06:37:45.770Z,1013.24
2023-01-25T06:38:45.735Z,1013.24
2023-01-25T06:39:45.730Z,1013.26
2023-01-25T06:40:45.923Z,1013.28
2023-01-25T06:41:45.711Z,1013.26
2023-01-25T06:42:45.726Z,1013.27
2023-01-25T06:43:45.679Z,1013.29
2023-01-25T06:44:45.673Z,1013.32
2023-01-25T06:45:45.659Z,1013.32
2023-01-25T06:46:45.709Z,1013.32
2023-01-25T06:47:45.639Z,1013.37
2023-01-25T06:48:45.654Z,1013.31
2023-01-25T06:49:45.642Z,1013.36
2023-01-25T06:50:45.608Z,1013.33
2023-01-25T06:51:45.591Z,1013.31
2023-01-25T06:52:45.590Z,1013.35
2023-01-25T06:53:45.630Z,1013.37
2023-01-25T06:54:45.576Z,1013.38
2023-01-25T06:55:45.548Z,1013.35
2023-01-25T06:56:45.546Z,1013.37
2023-01-25T06:57:45.520Z,1013.39
2023-01-25T06:58:45.522Z,1013.36
2023-01-25T06:59:45.515Z,1013.36
2023-01-25T07:00:45.502Z,1013.37
2023-01-25T07:01:45.565Z,1013.38
2023-01-25T07:02:45.622Z,1013.37
2023-01-25T07:03:45.514Z,1013.39
2023-01-25T07:04:45.458Z,1013.38
2023-01-25T07:05:45.442Z,1013.37
2023-01-25T07:06:45.429Z,1013.39
2023-01-25T07:07:45.419Z,1013.36
2023-01-25T07:08:45.411Z,1013.33
2023-01-25T07:09:45.415Z,1013.31
2023-01-25T07:10:45.406Z,1013.35
2023-01-25T07:11:45.389Z,1013.31
2023-01-25T07:12:45.362Z,1013.36
2023-01-25T07:13:45.361Z,1013.40
2023-01-25T07:14:45.356Z,1013.40
2023-01-25T07:15:45.356Z,1013.40
2023-01-25T07:16:45.321Z,1013.43
2023-01-25T07:17:45.317Z,1013.39
2023-01-25T07:18:45.308Z,1013.42
2023-01-25T07:19:45.305Z,1013.43
2023-01-25T07:20:45.271Z,1013.38
2023-01-25T07:21:45.287Z,1013.39
2023-01-25T07:22:45.260Z,1013.40
2023-01-25T07:23:45.356Z,1013.34
2023-01-25T07:24:45.243Z,1013.38
2023-01-25T07:25:45.228Z,1013.36
2023-01-25T07:26:45.236Z,1013.33
2023-01-25T07:27:45.256Z,1013.36
2023-01-25T07:28:45.195Z,1013.35
2023-01-25T07:29:45.190Z,1013.35
2023-01-25T07:30:45.161Z,1013.36
2023-01-25T07:31:45.172Z,1013.29
2023-01-25T07:32:45.156Z,1013.31
2023-01-25T07:33:45.136Z,1013.25
2023-01-25T07:34:45.128Z,1013.25
2023-01-25T07:35:45.126Z,1013.23
2023-01-25T07:36:45.095Z,1013.24
2023-01-25T07:37:45.102Z,1013.25
2023-01-25T07:38:45.099Z,1013.28
2023-01-25T07:39:45.074Z,1013.22
2023-01-25T07:40:45.068Z,1013.23
2023-01-25T07:41:45.057Z,1013.22
2023-01-25T07:42:45.036Z,1013.20
2023-01-25T07:43:45.040Z,1013.24
2023-01-25T07:44:45.012Z,1013.25
2023-01-25T07:45:45.000Z,1013.20
2023-01-25T07:46:44.989Z,1013.21
2023-01-25T07:47:44.984Z,1013.25
2023-01-25T07:48:44.971Z,1013.19
2023-01-25T07:49:44.980Z,1013.23
2023-01-25T07:50:44.957Z,1013.23
2023-01-25T07:51:44.932Z,1013.25
2023-01-25T07:52:44.946Z,1013.21
2023-01-25T07:53:44.940Z,1013.21
2023-01-25T07:54:44.913Z,1013.18
2023-01-25T07:55:44.902Z,1013.18
2023-01-25T07:56:44.887Z,1013.15
2023-01-25T07:57:44.871Z,1013.13
2023-01-25T07:58:44.898Z,1013.17
2023-01-25T07:59:44.875Z,1013.17
2023-01-25T08:00:44.840Z,1013.15
2023-01-25T08:01:44.888Z,1013.12
2023-01-25T08:02:44.850Z,1013.10
2023-01-25T08:03:44.863Z,1013.09
2023-01-25T08:04:44.814Z,1013.06
2023-01-25T08:05:44.804Z,1013.12
2023-01-25T08:06:44.771Z,1013.12
2023-01-25T08:07:44.754Z,1013.11
2023-01-25T08:08:44.789Z,1013.13
2023-01-25T08:09:44.830Z,1013.18
2023-01-25T08:10:44.737Z,1013.21
2023-01-25T08:11:44.742Z,1013.15
2023-01-25T08:12:44.704Z,1013.15
2023-01-25T08:13:44.724Z,1013.15
2023-01-25T08:14:44.715Z,1013.17
2023-01-25T08:15:44.701Z,1013.16
2023-01-25T08:16:44.663Z,1013.16
2023-01-25T08:17:44.666Z,1013.18
2023-01-25T08:18:44.680Z,1013.19
2023-01-25T08:19:44.694Z,1013.20
2023-01-25T08:20:44.631Z,1013.24
2023-01-25T08:21:44.674Z,1013.23
2023-01-25T08:22:44.609Z,1013.20
2023-01-25T08:23:44.842Z,1013.20
2023-01-25T08:24:44.663Z,1013.25
2023-01-25T08:25:44.566Z,1013.23
2023-01-25T08:26:44.568Z,1013.22
2023-01-25T08:27:44.594Z,1013.18
2023-01-25T08:28:44.543Z,1013.15
2023-01-25T08:29:44.528Z,1013.14
2023-01-25T08:30:56.405Z,1013.13
2023-01-25T08:31:44.519Z,1013.12
2023-01-25T08:32:44.504Z,1013.10
2023-01-25T08:33:44.509Z,1013.06
2023-01-25T08:34:44.495Z,1013.10
2023-01-25T08:35:44.485Z,1013.10
2023-01-25T08:36:44.471Z,1013.10
2023-01-25T08:37:44.467Z,1013.13
2023-01-25T08:38:44.449Z,1013.13
2023-01-25T08:39:44.434Z,1013.08
2023-01-25T08:40:44.425Z,1013.07
2023-01-25T08:41:44.417Z,1013.07
2023-01-25T08:42:44.392Z,1013.06
2023-01-25T08:43:44.420Z,1013.07
2023-01-25T08:44:44.374Z,1013.05
2023-01-25T08:45:44.398Z,1012.99
2023-01-25T08:46:44.331Z,1012.99
2023-01-25T08:47:44.334Z,1013.01
2023-01-25T08:48:44.316Z,1012.95
2023-01-25T08:49:44.325Z,1013.00
2023-01-25T08:50:44.528Z,1012.98
2023-01-25T08:51:44.291Z,1012.99
2023-01-25T08:52:44.280Z,1013.00
2023-01-25T08:53:44.301Z,1012.97
2023-01-25T08:54:44.460Z,1012.95
2023-01-25T08:55:44.263Z,1013.01
2023-01-25T08:56:44.251Z,1012.98
2023-01-25T08:57:44.220Z,1013.03
2023-01-25T08:58:44.296Z,1013.02
2023-01-25T08:59:44.214Z,1013.00
2023-01-25T09:00:44.206Z,1012.99
2023-01-25T09:01:44.179Z,1012.95
2023-01-25T09:02:44.168Z,1012.98
2023-01-25T09:03:44.305Z,1012.97
2023-01-25T09:04:44.152Z,1013.00
2023-01-25T09:05:44.125Z,1012.99
2023-01-25T09:06:44.142Z,1013.03
2023-01-25T09:07:44.097Z,1013.00
2023-01-25T09:08:44.117Z,1013.02
2023-01-25T09:09:44.095Z,1013.01
2023-01-25T09:10:44.082Z,1013.01
2023-01-25T09:11:44.071Z,1013.00
2023-01-25T09:12:44.066Z,1012.94
2023-01-25T09:13:44.055Z,1012.98
2023-01-25T09:14:44.062Z,1012.94
2023-01-25T09:15:44.036Z,1012.89
2023-01-25T09:16:44.005Z,1012.85
2023-01-25T09:17:44.020Z,1012.89
2023-01-25T09:18:43.996Z,1012.84
2023-01-25T09:19:43.976Z,1012.80
2023-01-25T09:20:43.977Z,1012.82
2023-01-25T09:21:44.002Z,1012.80
2023-01-25T09:22:43.950Z,1012.79
2023-01-25T09:23:51.555Z,1012.76
2023-01-25T09:24:43.972Z,1012.75
2023-01-25T09:25:43.906Z,1012.75
2023-01-25T09:26:50.111Z,1012.74
2023-01-25T09:27:43.898Z,1012.71
2023-01-25T09:28:43.889Z,1012.71
2023-01-25T09:30:00.008Z,1012.71
2023-01-25T09:30:47.942Z,1012.74
2023-01-25T09:31:44.314Z,1012.73
2023-01-25T09:32:43.985Z,1012.70
2023-01-25T09:33:43.820Z,1012.70
2023-01-25T09:34:43.820Z,1012.71
2023-01-25T09:35:43.814Z,1012.71
2023-01-25T09:36:43.797Z,1012.69
2023-01-25T09:37:43.795Z,1012.69
2023-01-25T09:38:43.783Z,1012.60
2023-01-25T09:39:43.772Z,1012.66
2023-01-25T09:40:43.749Z,1012.63
2023-01-25T09:41:43.731Z,1012.61
2023-01-25T09:42:43.740Z,1012.61
2023-01-25T09:43:43.723Z,1012.59
2023-01-25T09:44:43.721Z,1012.56
2023-01-25T09:45:43.718Z,1012.53
2023-01-25T09:46:43.713Z,1012.51
2023-01-25T09:47:43.666Z,1012.51
2023-01-25T09:48:43.658Z,1012.51
2023-01-25T09:49:43.660Z,1012.54
2023-01-25T09:50:43.662Z,1012.54
2023-01-25T09:51:43.618Z,1012.50
2023-01-25T09:52:43.626Z,1012.56
2023-01-25T09:53:43.605Z,1012.52
2023-01-25T09:54:47.039Z,1012.49
2023-01-25T09:55:43.601Z,1012.47
2023-01-25T09:56:43.580Z,1012.49
2023-01-25T09:57:43.557Z,1012.49
2023-01-25T09:58:43.539Z,1012.48
2023-01-25T09:59:43.541Z,1012.48
2023-01-25T10:00:43.544Z,1012.40
2023-01-25T10:01:43.620Z,1012.41
2023-01-25T10:02:43.633Z,1012.43
2023-01-25T10:03:43.527Z,1012.39
2023-01-25T10:04:43.470Z,1012.41
2023-01-25T10:05:43.476Z,1012.40
2023-01-25T10:06:48.814Z,1012.39
2023-01-25T10:07:43.451Z,1012.37
2023-01-25T10:08:43.460Z,1012.36
2023-01-25T10:09:43.426Z,1012.39
2023-01-25T10:10:43.408Z,1012.34
2023-01-25T10:11:45.348Z,1012.39
2023-01-25T10:12:43.403Z,1012.38
2023-01-25T10:13:43.401Z,1012.36
2023-01-25T10:14:43.375Z,1012.35
2023-01-25T10:15:44.344Z,1012.27
2023-01-25T10:16:43.428Z,1012.29
2023-01-25T10:17:43.340Z,1012.29
2023-01-25T10:18:43.328Z,1012.31
2023-01-25T10:19:43.329Z,1012.30
2023-01-25T10:20:43.299Z,1012.30
2023-01-25T10:21:43.299Z,1012.31
2023-01-25T10:22:43.292Z,1012.28
2023-01-25T10:23:43.271Z,1012.28
2023-01-25T10:24:43.260Z,1012.24
2023-01-25T10:25:43.257Z,1012.24
2023-01-25T10:26:43.260Z,1012.25
2023-01-25T10:27:43.241Z,1012.25
2023-01-25T10:28:43.211Z,1012.21
2023-01-25T10:29:43.211Z,1012.23
2023-01-25T10:30:43.213Z,1012.18
2023-01-25T10:31:43.313Z,1012.22
2023-01-25T10:32:55.505Z,1012.20
2023-01-25T10:33:43.173Z,1012.18
2023-01-25T10:34:55.397Z,1012.12
2023-01-25T10:35:45.909Z,1012.14
2023-01-25T10:36:43.127Z,1012.13
2023-01-25T10:37:43.134Z,1012.11
2023-01-25T10:38:43.127Z,1012.15
2023-01-25T10:39:43.133Z,1012.13
2023-01-25T10:40:43.091Z,1012.12
2023-01-25T10:41:43.088Z,1012.13
2023-01-25T10:42:43.071Z,1012.09
2023-01-25T10:43:43.059Z,1012.09
2023-01-25T10:44:43.040Z,1012.05
2023-01-25T10:45:43.054Z,1012.06
2023-01-25T10:46:43.033Z,1012.03
2023-01-25T10:47:43.017Z,1012.03
2023-01-25T10:48:43.013Z,1012.05
2023-01-25T10:49:43.009Z,1011.98
2023-01-25T10:50:42.991Z,1011.98
2023-01-25T10:51:42.978Z,1011.95
2023-01-25T10:52:42.956Z,1011.90
2023-01-25T10:53:42.934Z,1011.84
2023-01-25T10:54:42.966Z,1012.02
2023-01-25T10:55:42.933Z,1011.88
2023-01-25T10:56:42.916Z,1011.84
2023-01-25T10:57:42.901Z,1011.81
2023-01-25T10:58:42.906Z,1011.81
2023-01-25T10:59:42.899Z,1011.79
2023-01-25T11:00:42.868Z,1011.80
2023-01-25T11:01:42.944Z,1011.77
2023-01-25T11:02:42.889Z,1011.75
2023-01-25T11:03:42.832Z,1011.74
2023-01-25T11:04:44.314Z,1011.74
2023-01-25T11:05:42.827Z,1011.72
2023-01-25T11:06:42.809Z,1011.71
2023-01-25T11:07:42.793Z,1011.66
2023-01-25T11:08:42.795Z,1011.67
2023-01-25T11:09:42.769Z,1011.65
2023-01-25T11:10:42.767Z,1011.66
2023-01-25T11:11:42.758Z,1011.70
2023-01-25T11:12:42.753Z,1011.65
2023-01-25T11:13:42.727Z,1011.70
2023-01-25T11:14:42.729Z,1011.68
2023-01-25T11:15:42.748Z,1011.69
2023-01-25T11:16:42.759Z,1011.65
2023-01-25T11:17:42.711Z,1011.72
2023-01-25T11:18:42.675Z,1011.68
2023-01-25T11:19:42.695Z,1011.70
2023-01-25T11:20:42.649Z,1011.64
2023-01-25T11:21:42.647Z,1011.60
2023-01-25T11:22:42.664Z,1011.60
2023-01-25T11:23:42.627Z,1011.60
2023-01-25T11:24:42.612Z,1011.56
2023-01-25T11:25:42.612Z,1011.56
2023-01-25T11:26:42.596Z,1011.54
2023-01-25T11:27:42.578Z,1011.51
2023-01-25T11:28:42.609Z,1011.47
2023-01-25T11:29:42.546Z,1011.45
2023-01-25T11:30:42.557Z,1011.43
2023-01-25T11:31:42.642Z,1011.43
2023-01-25T11:32:42.525Z,1011.40
2023-01-25T11:33:42.513Z,1011.41
2023-01-25T11:34:42.529Z,1011.37
2023-01-25T11:35:42.490Z,1011.32
2023-01-25T11:36:42.499Z,1011.35
2023-01-25T11:37:42.454Z,1011.32
2023-01-25T11:38:42.452Z,1011.31
2023-01-25T11:39:42.453Z,1011.24
2023-01-25T11:40:42.441Z,1011.22
2023-01-25T11:41:42.435Z,1011.21
2023-01-25T11:42:42.410Z,1011.21
2023-01-25T11:43:42.425Z,1011.18
2023-01-25T11:44:42.409Z,1011.15
2023-01-25T11:45:42.385Z,1011.06
2023-01-25T11:46:42.403Z,1011.08
2023-01-25T11:47:42.365Z,1010.99
2023-01-25T11:48:42.343Z,1011.01
2023-01-25T11:49:42.332Z,1010.97
2023-01-25T11:50:42.342Z,1010.95
2023-01-25T11:51:43.104Z,1010.90
2023-01-25T11:52:42.330Z,1010.88
2023-01-25T11:53:42.303Z,1010.84
2023-01-25T11:54:42.279Z,1010.86
2023-01-25T11:55:42.270Z,1010.78
2023-01-25T11:56:42.260Z,1010.78
2023-01-25T11:57:43.816Z,1010.76
2023-01-25T11:58:42.242Z,1010.74
2023-01-25T11:59:42.227Z,1010.70
2023-01-25T12:00:42.215Z,1010.66
2023-01-25T12:01:42.232Z,1010.66
2023-01-25T12:02:42.232Z,1010.65
2023-01-25T12:03:42.245Z,1010.64
2023-01-25T12:04:42.173Z,1010.64
2023-01-25T12:05:42.165Z,1010.57